createdAt,value
2019-04-30T00:04:42.241Z,40.88
2019-04-30T00:09:49.222Z,40.87
2019-04-30T00:14:51.470Z,40.88
2019-04-30T00:19:58.742Z,40.87
2019-04-30T00:25:00.205Z,40.90
2019-04-30T00:30:08.935Z,40.94
2019-04-30T00:35:11.870Z,40.98
2019-04-30T00:40:15.932Z,41.00
2019-04-30T00:45:19.393Z,41.05
2019-04-30T00:50:24.795Z,41.02
2019-04-30T00:55:28.083Z,41.04
2019-04-30T01:00:35.249Z,41.03
2019-04-30T01:05:39.537Z,41.06
2019-04-30T01:10:46.024Z,41.10
2019-04-30T01:15:52.486Z,41.07
2019-04-30T01:20:54.934Z,41.12
2019-04-30T01:25:58.663Z,41.10
2019-04-30T01:31:02.152Z,41.10
2019-04-30T01:36:09.738Z,41.09
2019-04-30T01:41:10.946Z,41.11
2019-04-30T01:46:14.412Z,41.13
2019-04-30T01:51:21.696Z,41.19
2019-04-30T01:56:24.701Z,41.14
2019-04-30T02:01:31.197Z,41.14
2019-04-30T02:06:34.747Z,41.15
2019-04-30T02:11:38.863Z,41.15
2019-04-30T02:16:42.351Z,41.15
2019-04-30T02:21:45.816Z,41.17
2019-04-30T02:26:49.274Z,41.21
2019-04-30T02:31:52.736Z,41.20
2019-04-30T02:37:03.857Z,41.24
2019-04-30T02:42:09.678Z,41.24
2019-04-30T02:47:15.874Z,41.23
2019-04-30T02:52:21.117Z,41.22
2019-04-30T02:57:24.579Z,41.22
2019-04-30T03:02:29.162Z,41.23
2019-04-30T03:07:32.844Z,41.26
2019-04-30T03:12:36.300Z,41.25
2019-04-30T03:17:43.791Z,41.24
2019-04-30T03:22:47.256Z,41.25
2019-04-30T03:27:50.722Z,41.24
2019-04-30T03:43:03.033Z,41.23
2019-04-30T03:48:09.930Z,41.25
2019-04-30T03:53:11.938Z,41.24
2019-04-30T03:58:15.402Z,41.20
2019-04-30T04:03:20.102Z,41.26
2019-04-30T04:08:29.368Z,41.23
2019-04-30T04:13:33.255Z,41.25
2019-04-30T04:18:36.733Z,41.28
2019-04-30T04:23:40.202Z,41.26
2019-04-30T04:28:43.733Z,41.26
2019-04-30T04:33:49.686Z,41.25
2019-04-30T04:38:52.383Z,41.19
2019-04-30T04:43:55.845Z,41.11
2019-04-30T04:48:59.714Z,41.07
2019-04-30T04:54:03.598Z,41.04
2019-04-30T04:59:07.148Z,41.01
2019-04-30T05:04:11.752Z,40.99
2019-04-30T05:09:15.458Z,40.93
2019-04-30T05:14:19.113Z,40.90
2019-04-30T05:19:22.661Z,40.84
2019-04-30T05:24:26.116Z,40.76
2019-04-30T05:29:29.580Z,40.73
2019-04-30T05:34:33.040Z,40.64
2019-04-30T05:39:36.512Z,40.62
2019-04-30T05:44:39.969Z,40.58
2019-04-30T05:49:43.431Z,40.53
2019-04-30T05:54:48.666Z,40.48
2019-04-30T05:59:52.098Z,40.41
2019-04-30T06:04:55.562Z,40.33
2019-04-30T06:10:00.676Z,40.28
2019-04-30T06:15:15.756Z,40.19
2019-04-30T06:20:21.098Z,40.13
2019-04-30T06:25:35.491Z,40.13
2019-04-30T06:30:31.109Z,40.12
2019-04-30T06:35:34.566Z,40.14
2019-04-30T06:40:39.124Z,36.23
2019-04-30T06:45:42.689Z,29.93
2019-04-30T06:50:46.144Z,29.95
2019-04-30T06:55:50.377Z,30.06
2019-04-30T07:00:53.836Z,30.25
2019-04-30T07:05:58.647Z,30.24
2019-04-30T07:11:20.231Z,30.07
2019-04-30T07:16:23.705Z,30.62
2019-04-30T07:21:31.259Z,31.80
2019-04-30T07:26:32.421Z,32.21
2019-04-30T07:31:35.878Z,32.42
2019-04-30T07:36:48.430Z,32.57
2019-04-30T07:41:44.522Z,32.71
2019-04-30T07:46:49.339Z,32.78
2019-04-30T07:51:53.708Z,32.87
2019-04-30T07:57:00.219Z,32.93
2019-04-30T08:02:10.105Z,32.92
2019-04-30T08:07:09.756Z,32.95
2019-04-30T08:12:22.140Z,33.09
2019-04-30T08:17:18.862Z,33.09
2019-04-30T08:22:22.436Z,33.10
2019-04-30T08:27:25.899Z,33.13
2019-04-30T08:32:29.362Z,33.01
2019-04-30T08:37:32.828Z,33.13
2019-04-30T08:42:39.172Z,33.09
2019-04-30T08:47:41.474Z,33.12
2019-04-30T08:52:44.956Z,33.15
2019-04-30T08:57:50.047Z,33.10
2019-04-30T09:02:53.650Z,33.07
2019-04-30T09:07:57.108Z,33.04
2019-04-30T09:13:00.587Z,33.13
2019-04-30T09:18:08.241Z,33.33
2019-04-30T09:23:11.273Z,33.01
2019-04-30T09:28:14.886Z,32.75
2019-04-30T09:33:19.448Z,32.85
2019-04-30T09:38:23.016Z,33.21
2019-04-30T09:43:28.497Z,33.29
2019-04-30T09:48:31.693Z,33.32
2019-04-30T09:53:35.237Z,33.49
2019-04-30T09:58:39.369Z,33.87
2019-04-30T10:03:43.471Z,34.15
2019-04-30T10:08:50.571Z,34.47
2019-04-30T10:13:52.338Z,34.57
2019-04-30T10:18:55.814Z,33.84
2019-04-30T10:24:12.575Z,32.15
2019-04-30T10:29:05.133Z,32.93
2019-04-30T10:34:09.708Z,33.50
2019-04-30T10:39:13.443Z,33.57
2019-04-30T10:44:18.691Z,33.44
2019-04-30T10:49:22.334Z,33.37
2019-04-30T10:54:26.546Z,33.24
2019-04-30T10:59:31.015Z,33.41
2019-04-30T11:04:34.494Z,33.15
2019-04-30T11:09:39.367Z,32.68
2019-04-30T11:14:43.102Z,32.64
2019-04-30T11:19:46.760Z,32.89
2019-04-30T11:24:59.105Z,32.83
2019-04-30T11:30:01.514Z,32.74
2019-04-30T11:35:01.272Z,32.58
2019-04-30T11:40:10.347Z,31.40
2019-04-30T11:45:16.866Z,29.32
2019-04-30T11:50:20.609Z,29.53
2019-04-30T11:55:24.085Z,29.82
2019-04-30T12:00:29.687Z,29.99
2019-04-30T12:05:33.265Z,30.27
2019-04-30T12:10:44.104Z,30.32
2019-04-30T12:15:50.049Z,30.35
2019-04-30T12:20:52.751Z,30.23
2019-04-30T12:25:56.210Z,29.88
2019-04-30T12:30:59.672Z,29.66
2019-04-30T12:36:03.196Z,29.71
2019-04-30T12:46:09.055Z,28.72
2019-04-30T12:51:29.994Z,28.24
2019-04-30T12:56:38.054Z,27.90
2019-04-30T13:01:41.787Z,27.46
2019-04-30T13:06:48.047Z,27.29
2019-04-30T13:11:51.553Z,27.29
2019-04-30T13:16:55.377Z,27.52
2019-04-30T13:21:58.831Z,27.77
2019-04-30T13:27:02.289Z,27.93
2019-04-30T13:32:05.824Z,28.05
2019-04-30T13:37:09.376Z,28.42
2019-04-30T13:42:17.690Z,28.64
2019-04-30T13:47:19.648Z,28.43
2019-04-30T13:52:24.013Z,28.27
2019-04-30T13:57:27.468Z,27.78
2019-04-30T14:02:32.578Z,27.78
2019-04-30T14:07:43.678Z,27.62
2019-04-30T14:12:51.450Z,27.32
2019-04-30T14:17:54.914Z,27.43
2019-04-30T14:22:58.374Z,27.26
2019-04-30T14:28:01.832Z,27.28
2019-04-30T14:33:05.295Z,27.02
2019-04-30T14:38:09.160Z,27.07
2019-04-30T14:43:15.040Z,27.13
2019-04-30T14:48:23.387Z,27.03
2019-04-30T14:53:36.165Z,26.90
2019-04-30T14:58:41.265Z,26.84
2019-04-30T15:03:44.729Z,26.69
2019-04-30T15:08:49.472Z,27.24
2019-04-30T15:13:53.037Z,27.39
2019-04-30T15:18:56.489Z,27.06
2019-04-30T15:24:01.819Z,26.61
2019-04-30T15:29:11.797Z,26.77
2019-04-30T15:34:12.054Z,26.90
2019-04-30T15:39:17.163Z,26.88
2019-04-30T15:44:20.636Z,27.00
2019-04-30T15:49:24.122Z,26.72
2019-04-30T15:54:29.262Z,26.47
2019-04-30T15:59:40.464Z,26.89
2019-04-30T16:04:45.579Z,26.31
2019-04-30T16:10:05.458Z,26.25
2019-04-30T16:15:10.063Z,26.34
2019-04-30T16:20:13.901Z,26.58
2019-04-30T16:25:19.301Z,26.60
2019-04-30T16:30:23.014Z,26.80
2019-04-30T16:35:26.492Z,27.02
2019-04-30T16:40:29.979Z,27.13
2019-04-30T16:45:33.527Z,27.37
2019-04-30T16:50:37.005Z,27.59
2019-04-30T16:55:40.478Z,27.77
2019-04-30T17:00:44.096Z,27.91
2019-04-30T17:05:49.910Z,28.05
2019-04-30T17:10:55.210Z,28.16
2019-04-30T17:16:00.330Z,28.33
2019-04-30T17:21:03.878Z,28.31
2019-04-30T17:26:07.354Z,28.28
2019-04-30T17:31:13.404Z,28.30
2019-04-30T17:36:16.038Z,28.36
2019-04-30T17:41:19.511Z,28.54
2019-04-30T17:46:24.075Z,28.54
2019-04-30T17:51:27.554Z,28.67
2019-04-30T17:56:31.026Z,28.75
2019-04-30T18:01:34.521Z,28.92
2019-04-30T18:06:38.052Z,29.01
2019-04-30T18:11:41.528Z,29.13
2019-04-30T18:16:45.059Z,29.19
2019-04-30T18:22:02.201Z,29.28
2019-04-30T18:27:07.300Z,29.37
2019-04-30T18:32:10.757Z,29.43
2019-04-30T18:37:14.212Z,29.56
2019-04-30T18:42:19.346Z,29.69
2019-04-30T18:47:23.082Z,29.80
2019-04-30T18:52:26.543Z,29.94
2019-04-30T18:57:30.003Z,30.10
2019-04-30T19:02:33.463Z,30.26
2019-04-30T19:07:41.215Z,30.40
2019-04-30T19:12:52.032Z,30.53
2019-04-30T19:18:14.876Z,30.66
2019-04-30T19:23:19.083Z,30.79
2019-04-30T19:28:22.676Z,30.96
2019-04-30T19:33:26.145Z,31.08
2019-04-30T19:38:29.602Z,31.20
2019-04-30T19:43:33.056Z,31.32
2019-04-30T19:48:36.516Z,31.43
2019-04-30T19:53:39.972Z,31.66
2019-04-30T19:58:52.542Z,31.92
2019-04-30T20:03:48.687Z,32.12
2019-04-30T20:08:52.146Z,32.30
2019-04-30T20:13:55.611Z,32.41
2019-04-30T20:18:59.262Z,32.45
2019-04-30T20:24:02.705Z,32.48
2019-04-30T20:29:06.161Z,32.51
2019-04-30T20:34:09.634Z,32.55
2019-04-30T20:39:16.042Z,32.59
2019-04-30T20:44:19.558Z,32.65
2019-04-30T20:49:24.879Z,32.72
2019-04-30T20:54:29.124Z,32.77
2019-04-30T20:59:32.745Z,32.86
2019-04-30T21:04:36.217Z,32.91
2019-04-30T21:09:39.664Z,32.96
2019-04-30T21:14:43.124Z,33.03
2019-04-30T21:19:46.585Z,33.08
2019-04-30T21:24:50.037Z,33.14
2019-04-30T21:29:53.499Z,33.19
2019-04-30T21:35:04.031Z,33.26
2019-04-30T21:40:09.662Z,33.30
2019-04-30T21:45:13.153Z,33.35
2019-04-30T21:50:16.754Z,33.41
2019-04-30T21:55:20.285Z,33.46
2019-04-30T22:00:25.726Z,33.52
2019-04-30T22:05:29.254Z,33.57
2019-04-30T22:10:32.781Z,33.61
2019-04-30T22:15:36.311Z,33.68
2019-04-30T22:20:39.774Z,33.72
2019-04-30T22:25:43.232Z,33.77
2019-04-30T22:30:48.361Z,33.81
2019-04-30T22:35:59.329Z,33.86
2019-04-30T22:41:02.785Z,33.90
2019-04-30T22:46:09.633Z,33.94
2019-04-30T22:56:15.794Z,34.06
2019-04-30T23:11:31.838Z,34.18
2019-04-30T23:16:35.298Z,34.24
2019-04-30T23:21:39.201Z,34.26
2019-04-30T23:26:42.654Z,34.31
2019-04-30T23:31:46.122Z,34.34
2019-04-30T23:36:49.582Z,34.38
2019-04-30T23:41:53.041Z,34.42
2019-04-30T23:46:56.501Z,34.46
2019-04-30T23:51:59.965Z,34.50
2019-04-30T23:57:03.428Z,34.53
